createdAt,value
2022-10-11T00:02:47.445Z,7.63
2022-10-11T00:07:52.182Z,7.57
2022-10-11T00:12:55.118Z,7.50
2022-10-11T00:18:01.040Z,7.46
2022-10-11T00:23:07.734Z,7.43
2022-10-11T00:28:10.739Z,7.38
2022-10-11T00:33:13.693Z,7.34
2022-10-11T00:38:18.440Z,7.30
2022-10-11T00:43:24.477Z,7.25
2022-10-11T00:48:34.430Z,7.21
2022-10-11T00:53:38.730Z,7.19
2022-10-11T00:58:42.608Z,7.19
2022-10-11T01:03:46.190Z,7.13
2022-10-11T01:08:53.095Z,7.07
2022-10-11T01:14:11.967Z,7.03
2022-10-11T01:19:31.204Z,6.99
2022-10-11T01:25:02.864Z,7.03
2022-10-11T01:30:26.134Z,7.06
2022-10-11T01:35:34.830Z,7.01
2022-10-11T01:40:43.449Z,6.96
2022-10-11T01:45:51.724Z,6.92
2022-10-11T01:50:56.944Z,6.84
2022-10-11T01:56:09.884Z,6.81
2022-10-11T02:01:23.562Z,6.75
2022-10-11T02:06:33.859Z,6.72
2022-10-11T02:11:37.878Z,6.66
2022-10-11T02:16:47.386Z,6.63
2022-10-11T02:21:55.712Z,6.59
2022-10-11T02:27:01.272Z,6.58
2022-10-11T02:32:07.146Z,6.52
2022-10-11T02:37:16.651Z,6.47
2022-10-11T02:42:26.474Z,6.43
2022-10-11T02:47:32.631Z,6.39
2022-10-11T02:52:35.784Z,6.28
2022-10-11T02:57:38.738Z,6.27
2022-10-11T03:02:43.056Z,6.26
2022-10-11T03:07:46.335Z,6.24
2022-10-11T03:12:49.218Z,6.24
2022-10-11T03:17:53.525Z,6.21
2022-10-11T03:22:56.627Z,6.21
2022-10-11T03:27:59.480Z,6.24
2022-10-11T03:33:04.262Z,6.26
2022-10-11T03:38:11.110Z,6.26
2022-10-11T03:43:15.856Z,6.26
2022-10-11T03:48:20.475Z,6.22
2022-10-11T03:53:23.466Z,6.18
2022-10-11T03:58:26.336Z,6.12
2022-10-11T04:03:30.916Z,6.09
2022-10-11T04:08:34.050Z,6.09
2022-10-11T04:13:37.746Z,6.11
2022-10-11T04:18:42.422Z,6.13
2022-10-11T04:23:45.452Z,6.15
2022-10-11T04:28:49.633Z,6.17
2022-10-11T04:33:54.056Z,6.20
2022-10-11T04:38:57.059Z,6.19
2022-10-11T04:44:00.078Z,6.18
2022-10-11T04:49:04.326Z,6.11
2022-10-11T04:54:07.201Z,6.15
2022-10-11T04:59:10.248Z,6.19
2022-10-11T05:04:14.643Z,6.20
2022-10-11T05:09:17.519Z,6.14
2022-10-11T05:14:20.710Z,6.11
2022-10-11T05:19:24.967Z,6.04
2022-10-11T05:24:29.060Z,5.98
2022-10-11T05:29:32.021Z,5.96
2022-10-11T05:34:36.348Z,5.92
2022-10-11T05:39:39.492Z,5.97
2022-10-11T05:44:42.818Z,5.97
2022-10-11T05:49:47.188Z,5.96
2022-10-11T05:54:50.281Z,5.99
2022-10-11T05:59:53.158Z,6.05
2022-10-11T06:04:57.513Z,6.06
2022-10-11T06:10:00.688Z,6.14
2022-10-11T06:15:04.007Z,6.20
2022-10-11T06:20:09.883Z,6.23
2022-10-11T06:25:13.041Z,6.31
2022-10-11T06:30:15.964Z,6.40
2022-10-11T06:35:20.371Z,6.44
2022-10-11T06:40:23.347Z,6.56
2022-10-11T06:45:26.594Z,6.65
2022-10-11T06:50:58.067Z,6.72
2022-10-11T06:55:53.730Z,6.88
2022-10-11T07:01:00.321Z,6.99
2022-10-11T07:06:06.785Z,7.07
2022-10-11T07:11:11.881Z,7.12
2022-10-11T07:16:14.955Z,7.24
2022-10-11T07:21:20.485Z,7.39
2022-10-11T07:26:23.459Z,7.50
2022-10-11T07:31:27.357Z,7.55
2022-10-11T07:36:31.815Z,7.62
2022-10-11T07:41:34.956Z,7.74
2022-10-11T07:46:37.991Z,7.84
2022-10-11T07:51:42.520Z,7.94
2022-10-11T07:56:45.510Z,8.06
2022-10-11T08:01:48.607Z,8.18
2022-10-11T08:06:53.612Z,8.30
2022-10-11T08:11:56.575Z,8.51
2022-10-11T08:16:59.710Z,8.63
2022-10-11T08:22:04.451Z,8.80
2022-10-11T08:27:07.398Z,8.95
2022-10-11T08:32:12.326Z,9.05
2022-10-11T08:37:16.788Z,9.29
2022-10-11T08:42:28.961Z,9.66
2022-10-11T08:47:36.584Z,10.11
2022-10-11T08:52:49.509Z,10.50
2022-10-11T08:57:55.860Z,10.96
2022-10-11T09:03:09.488Z,11.41
2022-10-11T09:08:22.527Z,11.73
2022-10-11T09:13:43.756Z,12.10
2022-10-11T09:19:17.904Z,12.40
2022-10-11T09:24:39.026Z,12.67
2022-10-11T09:29:55.591Z,13.07
2022-10-11T09:35:02.844Z,13.43
2022-10-11T09:40:21.500Z,14.00
2022-10-11T09:45:25.161Z,14.42
2022-10-11T09:50:30.739Z,14.79
2022-10-11T09:55:40.586Z,15.22
2022-10-11T10:00:43.637Z,15.69
2022-10-11T10:05:46.673Z,16.02
2022-10-11T10:11:00.459Z,16.39
2022-10-11T10:16:04.313Z,16.81
2022-10-11T10:21:13.417Z,16.93
2022-10-11T10:26:19.921Z,17.10
2022-10-11T10:31:24.625Z,17.11
2022-10-11T10:36:30.557Z,17.16
2022-10-11T10:41:36.026Z,17.45
2022-10-11T10:46:55.850Z,17.61
2022-10-11T10:52:19.889Z,17.97
2022-10-11T10:57:29.631Z,18.14
2022-10-11T11:02:42.164Z,18.14
2022-10-11T11:07:50.413Z,18.27
2022-10-11T11:13:06.580Z,18.39
2022-10-11T11:18:26.756Z,18.58
2022-10-11T11:23:41.794Z,18.83
2022-10-11T11:29:06.001Z,19.01
2022-10-11T11:34:21.767Z,19.02
2022-10-11T11:39:27.462Z,19.10
2022-10-11T11:44:33.934Z,19.33
2022-10-11T11:49:39.537Z,19.47
2022-10-11T11:54:49.696Z,19.48
2022-10-11T12:00:00.730Z,19.72
2022-10-11T12:05:06.438Z,19.39
2022-10-11T12:10:27.300Z,19.40
2022-10-11T12:15:31.723Z,19.14
2022-10-11T12:20:38.121Z,18.74
2022-10-11T12:25:44.771Z,19.02
2022-10-11T12:30:54.607Z,19.01
2022-10-11T12:36:05.679Z,18.73
2022-10-11T12:41:45.974Z,18.89
2022-10-11T12:47:28.355Z,19.23
2022-10-11T12:52:40.356Z,19.42
2022-10-11T12:58:00.879Z,19.74
2022-10-11T13:03:31.806Z,19.94
2022-10-11T13:08:40.272Z,20.05
2022-10-11T13:13:47.242Z,19.91
2022-10-11T13:18:56.752Z,19.63
2022-10-11T13:24:01.795Z,19.49
2022-10-11T13:29:04.917Z,19.56
2022-10-11T13:34:13.727Z,19.48
2022-10-11T13:39:31.221Z,19.37
2022-10-11T13:44:35.469Z,19.15
2022-10-11T13:49:40.251Z,18.87
2022-10-11T13:54:56.090Z,18.59
2022-10-11T14:00:02.419Z,18.33
2022-10-11T14:05:27.158Z,18.08
2022-10-11T14:10:30.774Z,17.92
2022-10-11T14:15:35.733Z,17.76
2022-10-11T14:20:41.837Z,17.63
2022-10-11T14:25:44.865Z,17.49
2022-10-11T14:30:48.134Z,17.29
2022-10-11T14:35:52.823Z,17.13
2022-10-11T14:40:55.749Z,17.00
2022-10-11T14:45:58.778Z,16.89
2022-10-11T14:51:04.440Z,16.76
2022-10-11T14:56:08.310Z,16.67
2022-10-11T15:01:14.042Z,16.64
2022-10-11T15:06:21.767Z,16.55
2022-10-11T15:11:25.104Z,16.41
2022-10-11T15:16:28.313Z,16.27
2022-10-11T15:21:33.290Z,16.09
2022-10-11T15:26:36.277Z,15.95
2022-10-11T15:31:39.483Z,15.79
2022-10-11T15:36:43.910Z,15.62
2022-10-11T15:41:46.888Z,15.47
2022-10-11T15:46:49.968Z,15.32
2022-10-11T15:51:54.258Z,15.19
2022-10-11T15:56:57.203Z,14.96
2022-10-11T16:02:00.153Z,14.93
2022-10-11T16:07:04.552Z,14.99
2022-10-11T16:12:08.084Z,14.91
2022-10-11T16:17:11.071Z,14.76
2022-10-11T16:22:15.796Z,14.66
2022-10-11T16:27:19.102Z,14.54
2022-10-11T16:32:22.857Z,14.38
2022-10-11T16:37:27.322Z,14.26
2022-10-11T16:42:31.095Z,14.10
2022-10-11T16:47:34.224Z,13.93
2022-10-11T16:52:38.677Z,13.77
2022-10-11T16:57:41.680Z,13.58
2022-10-11T17:02:44.919Z,13.38
2022-10-11T17:07:49.261Z,13.24
2022-10-11T17:12:52.174Z,13.07
2022-10-11T17:17:56.585Z,12.90
2022-10-11T17:23:00.957Z,12.76
2022-10-11T17:28:03.950Z,12.63
2022-10-11T17:33:07.026Z,12.46
2022-10-11T17:38:11.590Z,12.28
2022-10-11T17:43:15.893Z,12.14
2022-10-11T17:48:18.938Z,12.01
2022-10-11T17:53:23.406Z,11.89
2022-10-11T17:58:27.610Z,11.77
2022-10-11T18:03:30.608Z,11.64
2022-10-11T18:08:40.244Z,11.52
2022-10-11T18:13:46.471Z,11.42
2022-10-11T18:18:50.227Z,11.31
2022-10-11T18:23:55.166Z,11.23
2022-10-11T18:28:58.152Z,11.13
2022-10-11T18:34:01.233Z,11.03
2022-10-11T18:39:08.302Z,10.94
2022-10-11T18:44:15.195Z,10.84
2022-10-11T18:49:18.433Z,10.77
2022-10-11T18:54:22.839Z,10.68
2022-10-11T18:59:25.831Z,10.60
2022-10-11T19:04:33.256Z,10.52
2022-10-11T19:09:38.146Z,10.43
2022-10-11T19:14:41.089Z,10.33
2022-10-11T19:19:44.390Z,10.30
2022-10-11T19:24:48.800Z,10.22
2022-10-11T19:29:52.179Z,10.08
2022-10-11T19:34:55.335Z,9.99
2022-10-11T19:39:59.940Z,9.93
2022-10-11T19:45:03.102Z,9.82
2022-10-11T19:50:07.065Z,9.77
2022-10-11T19:55:11.837Z,9.77
2022-10-11T20:00:16.164Z,9.71
2022-10-11T20:05:19.793Z,9.66
2022-10-11T20:10:24.618Z,9.61
2022-10-11T20:15:27.679Z,9.54
2022-10-11T20:20:32.103Z,9.48
2022-10-11T20:25:37.016Z,9.39
2022-10-11T20:30:43.815Z,9.30
2022-10-11T20:35:57.393Z,9.27
2022-10-11T20:41:06.485Z,9.19
2022-10-11T20:46:14.398Z,9.10
2022-10-11T20:51:18.475Z,9.04
2022-10-11T20:56:23.541Z,8.96
2022-10-11T21:01:28.182Z,8.92
2022-10-11T21:06:32.691Z,8.82
2022-10-11T21:11:37.004Z,8.81
2022-10-11T21:16:40.159Z,8.75
2022-10-11T21:21:43.857Z,8.65
2022-10-11T21:26:48.159Z,8.56
2022-10-11T21:31:51.046Z,8.50
2022-10-11T21:36:53.957Z,8.42
2022-10-11T21:41:58.391Z,8.37
2022-10-11T21:47:07.045Z,8.29
2022-10-11T21:52:11.043Z,8.26
2022-10-11T21:57:15.346Z,8.18
2022-10-11T22:02:18.468Z,8.14
2022-10-11T22:07:21.385Z,8.10
2022-10-11T22:12:25.594Z,8.05
2022-10-11T22:17:28.467Z,7.98
2022-10-11T22:22:31.509Z,7.95
2022-10-11T22:27:35.831Z,7.91
2022-10-11T22:32:38.808Z,7.91
2022-10-11T22:37:41.994Z,7.88
2022-10-11T22:42:46.378Z,7.85
2022-10-11T22:47:49.301Z,7.82
2022-10-11T22:52:52.159Z,7.80
2022-10-11T22:57:56.433Z,7.80
2022-10-11T23:02:59.719Z,7.76
2022-10-11T23:08:02.783Z,7.74
2022-10-11T23:13:07.092Z,7.69
2022-10-11T23:18:10.075Z,7.64
2022-10-11T23:23:12.999Z,7.62
2022-10-11T23:28:17.297Z,7.58
2022-10-11T23:33:20.658Z,7.56
2022-10-11T23:38:23.775Z,7.54
2022-10-11T23:43:28.687Z,7.52
2022-10-11T23:48:31.607Z,7.52
2022-10-11T23:53:34.979Z,7.50
2022-10-11T23:58:39.642Z,7.51
